Arlington, Wisconsin
Current Conditions -  °F | °C
As of 10:53 AM on Saturday 25 Oct 2014 (Local Time) from KMSN Reporting Station
Clear Clear  
Wind Chill: 63°   Ceiling: Unl
Heat Index: 63°   Visibility: 10mi
Dew Point: 41°   Wind: 10mph
Humidity: 45%   Direction: 310°NW
Pressure: 29.96"   Gusts: 20mph
Location:  43.34°N, 89.38°W
Report Text: KMSN 251553Z 31009G17KT 280V340 10SM CLR 17/05 A2996 RMK AO2 SLP145 T01720050
Loading
Personal Weather Stations






























Interactive Weather Map
Tropical Storm Tracking
New forecast layout! Learn more

10-Day Weather Forecast

Advertisements
Track Severe Weather on mobile